Elm Springs, South Dakota
Current Conditions -  °F | °C
As of 8:58 PM on Sunday 23 Nov 2014 (Local Time) from KRCA Reporting Station
Few Clouds Few Clouds  
Wind Chill: 21°   Ceiling: Unl
Heat Index: 35°   Visibility: 10mi
Dew Point: 21°   Wind: 31mph
Humidity: 57%   Direction: 340°NNW
Pressure: 29.68"   Gusts: 39mph
Location:  44.34°N, 102.4°W
Report Text: KRCA 240358Z AUTO 34027G34KT 10SM FEW100 02/M06 A2968 RMK AO2 PK WND 34035/44 SLP072 T00151061 $
Loading
Personal Weather Stations






























Interactive Weather Map New forecast layout! Learn more

10-Day Weather Forecast

Advertisements
Track Severe Weather on mobile